sensor_id;sensor_type;location;lat;lon;timestamp;P1;durP1;ratioP1;P2;durP2;ratioP2
42186;SDS011;27858;51.414;0.018;2023-04-30T00:00:58;15.05;;;7.75;;
42186;SDS011;27858;51.414;0.018;2023-04-30T00:03:25;17.00;;;9.43;;
42186;SDS011;27858;51.414;0.018;2023-04-30T00:05:52;15.88;;;10.30;;
42186;SDS011;27858;51.414;0.018;2023-04-30T00:08:18;18.50;;;8.55;;
42186;SDS011;27858;51.414;0.018;2023-04-30T00:10:45;13.40;;;8.77;;
42186;SDS011;27858;51.414;0.018;2023-04-30T00:13:12;15.48;;;8.73;;
42186;SDS011;27858;51.414;0.018;2023-04-30T00:15:39;13.95;;;8.02;;
42186;SDS011;27858;51.414;0.018;2023-04-30T00:18:06;16.60;;;10.27;;
42186;SDS011;27858;51.414;0.018;2023-04-30T00:20:33;13.15;;;8.55;;
42186;SDS011;27858;51.414;0.018;2023-04-30T00:23:00;14.52;;;8.23;;
42186;SDS011;27858;51.414;0.018;2023-04-30T00:25:27;15.32;;;8.80;;
42186;SDS011;27858;51.414;0.018;2023-04-30T00:27:54;14.57;;;8.05;;
42186;SDS011;27858;51.414;0.018;2023-04-30T00:30:21;14.02;;;8.35;;
42186;SDS011;27858;51.414;0.018;2023-04-30T00:32:48;15.45;;;10.20;;
42186;SDS011;27858;51.414;0.018;2023-04-30T00:35:15;16.30;;;8.75;;
42186;SDS011;27858;51.414;0.018;2023-04-30T00:37:41;14.25;;;8.52;;
42186;SDS011;27858;51.414;0.018;2023-04-30T00:40:08;13.50;;;8.90;;
42186;SDS011;27858;51.414;0.018;2023-04-30T00:42:35;15.60;;;10.18;;
42186;SDS011;27858;51.414;0.018;2023-04-30T00:45:02;14.43;;;8.27;;
42186;SDS011;27858;51.414;0.018;2023-04-30T00:47:29;15.45;;;9.13;;
42186;SDS011;27858;51.414;0.018;2023-04-30T00:49:57;15.73;;;9.50;;
42186;SDS011;27858;51.414;0.018;2023-04-30T00:52:24;15.15;;;8.85;;
42186;SDS011;27858;51.414;0.018;2023-04-30T00:54:52;35.10;;;10.75;;
42186;SDS011;27858;51.414;0.018;2023-04-30T00:57:19;19.85;;;10.98;;
42186;SDS011;27858;51.414;0.018;2023-04-30T00:59:47;17.73;;;9.90;;
42186;SDS011;27858;51.414;0.018;2023-04-30T01:02:14;12.75;;;9.05;;
42186;SDS011;27858;51.414;0.018;2023-04-30T01:04:42;14.00;;;9.38;;
42186;SDS011;27858;51.414;0.018;2023-04-30T01:07:09;22.08;;;10.68;;
42186;SDS011;27858;51.414;0.018;2023-04-30T01:09:36;15.55;;;9.50;;
42186;SDS011;27858;51.414;0.018;2023-04-30T01:14:36;16.05;;;8.30;;
42186;SDS011;27858;51.414;0.018;2023-04-30T01:19:59;13.13;;;8.07;;
42186;SDS011;27858;51.414;0.018;2023-04-30T01:22:31;14.32;;;9.15;;
42186;SDS011;27858;51.414;0.018;2023-04-30T01:30:29;11.70;;;8.57;;
42186;SDS011;27858;51.414;0.018;2023-04-30T01:32:57;12.57;;;8.45;;
42186;SDS011;27858;51.414;0.018;2023-04-30T01:35:29;16.33;;;8.48;;
42186;SDS011;27858;51.414;0.018;2023-04-30T01:38:18;18.08;;;9.82;;
42186;SDS011;27858;51.414;0.018;2023-04-30T01:41:07;17.17;;;8.77;;
42186;SDS011;27858;51.414;0.018;2023-04-30T01:46:29;14.13;;;9.70;;
42186;SDS011;27858;51.414;0.018;2023-04-30T01:51:39;17.50;;;9.30;;
42186;SDS011;27858;51.414;0.018;2023-04-30T01:54:11;15.13;;;7.83;;
42186;SDS011;27858;51.414;0.018;2023-04-30T01:56:40;14.43;;;9.23;;
42186;SDS011;27858;51.414;0.018;2023-04-30T01:59:11;14.43;;;8.00;;
42186;SDS011;27858;51.414;0.018;2023-04-30T02:01:39;15.00;;;9.38;;
42186;SDS011;27858;51.414;0.018;2023-04-30T02:04:07;12.05;;;7.10;;
42186;SDS011;27858;51.414;0.018;2023-04-30T02:06:33;16.90;;;7.82;;
42186;SDS011;27858;51.414;0.018;2023-04-30T02:09:00;13.77;;;8.35;;
42186;SDS011;27858;51.414;0.018;2023-04-30T02:11:30;20.55;;;9.43;;
42186;SDS011;27858;51.414;0.018;2023-04-30T02:13:57;15.70;;;9.55;;
42186;SDS011;27858;51.414;0.018;2023-04-30T02:16:23;15.00;;;8.55;;
42186;SDS011;27858;51.414;0.018;2023-04-30T02:18:50;15.38;;;9.23;;
42186;SDS011;27858;51.414;0.018;2023-04-30T02:21:17;14.75;;;8.95;;
42186;SDS011;27858;51.414;0.018;2023-04-30T02:23:44;15.30;;;8.98;;
42186;SDS011;27858;51.414;0.018;2023-04-30T02:26:11;17.33;;;10.30;;
42186;SDS011;27858;51.414;0.018;2023-04-30T02:28:38;15.13;;;9.02;;
42186;SDS011;27858;51.414;0.018;2023-04-30T02:31:04;16.15;;;9.73;;
42186;SDS011;27858;51.414;0.018;2023-04-30T02:33:31;18.58;;;10.23;;
42186;SDS011;27858;51.414;0.018;2023-04-30T02:36:01;12.73;;;8.77;;
42186;SDS011;27858;51.414;0.018;2023-04-30T02:38:28;18.15;;;10.10;;
42186;SDS011;27858;51.414;0.018;2023-04-30T02:40:54;15.88;;;9.73;;
42186;SDS011;27858;51.414;0.018;2023-04-30T02:43:21;14.85;;;10.80;;
42186;SDS011;27858;51.414;0.018;2023-04-30T02:45:48;16.25;;;9.88;;
42186;SDS011;27858;51.414;0.018;2023-04-30T02:48:15;18.63;;;10.18;;
42186;SDS011;27858;51.414;0.018;2023-04-30T02:50:42;20.50;;;11.85;;
42186;SDS011;27858;51.414;0.018;2023-04-30T02:53:08;20.23;;;11.05;;
42186;SDS011;27858;51.414;0.018;2023-04-30T02:55:35;22.80;;;12.65;;
42186;SDS011;27858;51.414;0.018;2023-04-30T02:58:02;24.83;;;15.27;;
42186;SDS011;27858;51.414;0.018;2023-04-30T03:00:28;20.48;;;11.65;;
42186;SDS011;27858;51.414;0.018;2023-04-30T03:02:55;18.17;;;11.75;;
42186;SDS011;27858;51.414;0.018;2023-04-30T03:05:22;26.48;;;12.52;;
42186;SDS011;27858;51.414;0.018;2023-04-30T03:07:49;19.05;;;11.88;;
42186;SDS011;27858;51.414;0.018;2023-04-30T03:10:16;21.08;;;12.23;;
42186;SDS011;27858;51.414;0.018;2023-04-30T03:12:44;22.75;;;12.48;;
42186;SDS011;27858;51.414;0.018;2023-04-30T03:15:11;19.50;;;11.77;;
42186;SDS011;27858;51.414;0.018;2023-04-30T03:17:38;18.20;;;11.27;;
42186;SDS011;27858;51.414;0.018;2023-04-30T03:20:05;21.25;;;13.43;;
42186;SDS011;27858;51.414;0.018;2023-04-30T03:22:32;23.40;;;14.45;;
42186;SDS011;27858;51.414;0.018;2023-04-30T03:24:59;21.88;;;13.13;;
42186;SDS011;27858;51.414;0.018;2023-04-30T03:27:25;21.25;;;12.48;;
42186;SDS011;27858;51.414;0.018;2023-04-30T03:29:52;25.60;;;13.52;;
42186;SDS011;27858;51.414;0.018;2023-04-30T03:32:19;23.00;;;13.25;;
42186;SDS011;27858;51.414;0.018;2023-04-30T03:34:46;22.67;;;12.93;;
42186;SDS011;27858;51.414;0.018;2023-04-30T03:37:13;22.25;;;12.85;;
42186;SDS011;27858;51.414;0.018;2023-04-30T03:39:39;30.48;;;14.90;;
42186;SDS011;27858;51.414;0.018;2023-04-30T03:42:06;21.58;;;12.55;;
42186;SDS011;27858;51.414;0.018;2023-04-30T03:44:33;23.15;;;11.82;;
42186;SDS011;27858;51.414;0.018;2023-04-30T03:47:00;20.77;;;12.10;;
42186;SDS011;27858;51.414;0.018;2023-04-30T03:49:26;19.92;;;12.32;;
42186;SDS011;27858;51.414;0.018;2023-04-30T03:51:53;20.00;;;12.10;;
42186;SDS011;27858;51.414;0.018;2023-04-30T03:54:20;20.48;;;12.35;;
42186;SDS011;27858;51.414;0.018;2023-04-30T03:56:46;20.33;;;11.40;;
42186;SDS011;27858;51.414;0.018;2023-04-30T03:59:13;19.20;;;10.95;;
42186;SDS011;27858;51.414;0.018;2023-04-30T04:01:40;22.52;;;12.88;;
42186;SDS011;27858;51.414;0.018;2023-04-30T04:04:07;17.85;;;10.65;;
42186;SDS011;27858;51.414;0.018;2023-04-30T04:06:34;23.48;;;12.65;;
42186;SDS011;27858;51.414;0.018;2023-04-30T04:09:01;23.42;;;11.75;;
42186;SDS011;27858;51.414;0.018;2023-04-30T04:11:29;21.40;;;13.35;;
42186;SDS011;27858;51.414;0.018;2023-04-30T04:13:56;17.88;;;11.35;;
42186;SDS011;27858;51.414;0.018;2023-04-30T04:16:23;27.35;;;14.27;;
42186;SDS011;27858;51.414;0.018;2023-04-30T04:18:50;18.83;;;12.57;;
42186;SDS011;27858;51.414;0.018;2023-04-30T04:21:16;23.00;;;13.18;;
42186;SDS011;27858;51.414;0.018;2023-04-30T04:23:44;24.27;;;13.25;;
42186;SDS011;27858;51.414;0.018;2023-04-30T04:26:11;18.55;;;11.45;;
42186;SDS011;27858;51.414;0.018;2023-04-30T04:28:37;24.05;;;11.07;;
42186;SDS011;27858;51.414;0.018;2023-04-30T04:31:04;24.13;;;12.68;;
42186;SDS011;27858;51.414;0.018;2023-04-30T04:33:31;20.95;;;12.43;;
42186;SDS011;27858;51.414;0.018;2023-04-30T04:35:58;22.08;;;12.90;;
42186;SDS011;27858;51.414;0.018;2023-04-30T04:38:25;26.35;;;13.05;;
42186;SDS011;27858;51.414;0.018;2023-04-30T04:40:52;21.52;;;13.50;;
42186;SDS011;27858;51.414;0.018;2023-04-30T04:43:19;26.48;;;14.43;;
42186;SDS011;27858;51.414;0.018;2023-04-30T04:45:46;24.67;;;12.98;;
42186;SDS011;27858;51.414;0.018;2023-04-30T04:48:14;24.45;;;13.35;;
42186;SDS011;27858;51.414;0.018;2023-04-30T04:50:41;23.52;;;13.40;;
42186;SDS011;27858;51.414;0.018;2023-04-30T04:53:07;21.38;;;13.00;;
42186;SDS011;27858;51.414;0.018;2023-04-30T04:55:34;25.95;;;14.15;;
42186;SDS011;27858;51.414;0.018;2023-04-30T04:58:01;25.83;;;15.10;;
42186;SDS011;27858;51.414;0.018;2023-04-30T05:00:28;24.40;;;14.63;;
42186;SDS011;27858;51.414;0.018;2023-04-30T05:02:55;21.05;;;13.05;;
42186;SDS011;27858;51.414;0.018;2023-04-30T05:05:22;22.10;;;13.55;;
42186;SDS011;27858;51.414;0.018;2023-04-30T05:07:48;26.40;;;14.55;;
42186;SDS011;27858;51.414;0.018;2023-04-30T05:10:17;24.73;;;13.80;;
42186;SDS011;27858;51.414;0.018;2023-04-30T05:12:44;26.65;;;13.30;;
42186;SDS011;27858;51.414;0.018;2023-04-30T05:15:11;24.13;;;13.45;;
42186;SDS011;27858;51.414;0.018;2023-04-30T05:17:38;22.42;;;12.32;;
42186;SDS011;27858;51.414;0.018;2023-04-30T05:20:05;23.70;;;15.98;;
42186;SDS011;27858;51.414;0.018;2023-04-30T05:22:32;23.42;;;13.73;;
42186;SDS011;27858;51.414;0.018;2023-04-30T05:24:59;26.00;;;13.77;;
42186;SDS011;27858;51.414;0.018;2023-04-30T05:27:26;25.33;;;15.77;;
42186;SDS011;27858;51.414;0.018;2023-04-30T05:29:53;24.27;;;14.45;;
42186;SDS011;27858;51.414;0.018;2023-04-30T05:32:21;24.90;;;14.07;;
42186;SDS011;27858;51.414;0.018;2023-04-30T05:34:48;25.25;;;14.88;;
42186;SDS011;27858;51.414;0.018;2023-04-30T05:37:15;22.50;;;13.25;;
42186;SDS011;27858;51.414;0.018;2023-04-30T05:39:44;21.45;;;12.88;;
42186;SDS011;27858;51.414;0.018;2023-04-30T05:42:11;21.52;;;12.85;;
42186;SDS011;27858;51.414;0.018;2023-04-30T05:44:39;19.10;;;11.95;;
42186;SDS011;27858;51.414;0.018;2023-04-30T05:47:06;19.60;;;11.20;;
42186;SDS011;27858;51.414;0.018;2023-04-30T05:49:33;21.35;;;13.05;;
42186;SDS011;27858;51.414;0.018;2023-04-30T05:52:01;22.67;;;13.27;;
42186;SDS011;27858;51.414;0.018;2023-04-30T05:54:29;21.33;;;11.52;;
42186;SDS011;27858;51.414;0.018;2023-04-30T05:56:56;19.05;;;11.55;;
42186;SDS011;27858;51.414;0.018;2023-04-30T05:59:22;22.30;;;11.70;;
42186;SDS011;27858;51.414;0.018;2023-04-30T06:01:49;19.13;;;10.43;;
42186;SDS011;27858;51.414;0.018;2023-04-30T06:04:16;19.42;;;10.55;;
42186;SDS011;27858;51.414;0.018;2023-04-30T06:06:43;16.75;;;11.02;;
42186;SDS011;27858;51.414;0.018;2023-04-30T06:09:10;21.13;;;11.05;;
42186;SDS011;27858;51.414;0.018;2023-04-30T06:11:37;18.17;;;10.02;;
42186;SDS011;27858;51.414;0.018;2023-04-30T06:14:08;15.82;;;9.35;;
42186;SDS011;27858;51.414;0.018;2023-04-30T06:16:36;19.88;;;10.65;;
42186;SDS011;27858;51.414;0.018;2023-04-30T06:19:03;15.00;;;9.27;;
42186;SDS011;27858;51.414;0.018;2023-04-30T06:21:30;23.05;;;11.77;;
42186;SDS011;27858;51.414;0.018;2023-04-30T06:23:57;22.42;;;10.32;;
42186;SDS011;27858;51.414;0.018;2023-04-30T06:26:23;13.95;;;9.45;;
42186;SDS011;27858;51.414;0.018;2023-04-30T06:28:50;13.45;;;8.52;;
42186;SDS011;27858;51.414;0.018;2023-04-30T06:31:19;20.42;;;12.18;;
42186;SDS011;27858;51.414;0.018;2023-04-30T06:33:46;18.65;;;11.65;;
42186;SDS011;27858;51.414;0.018;2023-04-30T06:36:13;17.73;;;12.05;;
42186;SDS011;27858;51.414;0.018;2023-04-30T06:38:40;19.40;;;11.50;;
42186;SDS011;27858;51.414;0.018;2023-04-30T06:41:08;20.77;;;11.95;;
42186;SDS011;27858;51.414;0.018;2023-04-30T06:43:35;16.10;;;10.57;;
42186;SDS011;27858;51.414;0.018;2023-04-30T06:46:02;14.00;;;8.75;;
42186;SDS011;27858;51.414;0.018;2023-04-30T06:48:29;15.75;;;10.18;;
42186;SDS011;27858;51.414;0.018;2023-04-30T06:50:55;18.25;;;9.77;;
42186;SDS011;27858;51.414;0.018;2023-04-30T06:53:22;14.30;;;8.45;;
42186;SDS011;27858;51.414;0.018;2023-04-30T06:55:49;20.08;;;11.02;;
42186;SDS011;27858;51.414;0.018;2023-04-30T06:58:17;19.90;;;9.35;;
42186;SDS011;27858;51.414;0.018;2023-04-30T07:00:44;18.00;;;10.23;;
42186;SDS011;27858;51.414;0.018;2023-04-30T07:03:11;14.05;;;9.13;;
42186;SDS011;27858;51.414;0.018;2023-04-30T07:05:39;17.90;;;9.50;;
42186;SDS011;27858;51.414;0.018;2023-04-30T07:08:06;18.33;;;9.05;;
42186;SDS011;27858;51.414;0.018;2023-04-30T07:10:33;16.23;;;11.40;;
42186;SDS011;27858;51.414;0.018;2023-04-30T07:13:00;16.27;;;11.93;;
42186;SDS011;27858;51.414;0.018;2023-04-30T07:15:26;23.33;;;14.73;;
42186;SDS011;27858;51.414;0.018;2023-04-30T07:17:53;23.65;;;12.50;;
42186;SDS011;27858;51.414;0.018;2023-04-30T07:20:20;17.55;;;10.88;;
42186;SDS011;27858;51.414;0.018;2023-04-30T07:22:47;15.75;;;11.27;;
42186;SDS011;27858;51.414;0.018;2023-04-30T07:25:13;22.35;;;13.32;;
42186;SDS011;27858;51.414;0.018;2023-04-30T07:27:40;23.35;;;13.10;;
42186;SDS011;27858;51.414;0.018;2023-04-30T07:30:07;17.65;;;11.50;;
42186;SDS011;27858;51.414;0.018;2023-04-30T07:32:36;23.60;;;12.70;;
42186;SDS011;27858;51.414;0.018;2023-04-30T07:35:03;21.88;;;14.80;;
42186;SDS011;27858;51.414;0.018;2023-04-30T07:37:30;36.00;;;14.90;;
42186;SDS011;27858;51.414;0.018;2023-04-30T07:40:00;26.23;;;14.40;;
42186;SDS011;27858;51.414;0.018;2023-04-30T07:42:28;19.95;;;11.25;;
42186;SDS011;27858;51.414;0.018;2023-04-30T07:44:55;23.42;;;12.82;;
42186;SDS011;27858;51.414;0.018;2023-04-30T07:47:22;22.65;;;15.35;;
42186;SDS011;27858;51.414;0.018;2023-04-30T07:49:50;20.77;;;13.02;;
42186;SDS011;27858;51.414;0.018;2023-04-30T07:52:17;29.73;;;15.18;;
42186;SDS011;27858;51.414;0.018;2023-04-30T07:54:43;20.02;;;12.98;;
42186;SDS011;27858;51.414;0.018;2023-04-30T07:57:10;25.95;;;15.15;;
42186;SDS011;27858;51.414;0.018;2023-04-30T07:59:38;22.55;;;14.07;;
42186;SDS011;27858;51.414;0.018;2023-04-30T08:02:05;25.90;;;15.50;;
42186;SDS011;27858;51.414;0.018;2023-04-30T08:04:34;22.02;;;12.60;;
42186;SDS011;27858;51.414;0.018;2023-04-30T08:07:01;19.45;;;11.40;;
42186;SDS011;27858;51.414;0.018;2023-04-30T08:09:29;18.63;;;12.45;;
42186;SDS011;27858;51.414;0.018;2023-04-30T08:11:56;56.95;;;15.77;;
42186;SDS011;27858;51.414;0.018;2023-04-30T08:14:23;20.35;;;13.30;;
42186;SDS011;27858;51.414;0.018;2023-04-30T08:16:49;21.35;;;14.27;;
42186;SDS011;27858;51.414;0.018;2023-04-30T08:19:17;22.42;;;13.35;;
42186;SDS011;27858;51.414;0.018;2023-04-30T08:21:43;21.88;;;12.20;;
42186;SDS011;27858;51.414;0.018;2023-04-30T08:24:10;21.35;;;13.00;;
42186;SDS011;27858;51.414;0.018;2023-04-30T08:26:37;19.85;;;13.23;;
42186;SDS011;27858;51.414;0.018;2023-04-30T08:29:04;18.70;;;12.13;;
42186;SDS011;27858;51.414;0.018;2023-04-30T08:31:33;20.55;;;12.93;;
42186;SDS011;27858;51.414;0.018;2023-04-30T08:34:00;23.23;;;13.88;;
42186;SDS011;27858;51.414;0.018;2023-04-30T08:36:27;19.25;;;11.75;;
42186;SDS011;27858;51.414;0.018;2023-04-30T08:38:54;14.73;;;10.40;;
42186;SDS011;27858;51.414;0.018;2023-04-30T08:41:24;15.48;;;10.85;;
42186;SDS011;27858;51.414;0.018;2023-04-30T08:43:52;17.10;;;11.23;;
42186;SDS011;27858;51.414;0.018;2023-04-30T08:46:19;23.35;;;12.65;;
42186;SDS011;27858;51.414;0.018;2023-04-30T08:48:48;20.25;;;12.23;;
42186;SDS011;27858;51.414;0.018;2023-04-30T08:51:15;19.50;;;12.18;;
42186;SDS011;27858;51.414;0.018;2023-04-30T08:53:42;17.35;;;10.23;;
42186;SDS011;27858;51.414;0.018;2023-04-30T08:56:11;15.40;;;9.50;;
42186;SDS011;27858;51.414;0.018;2023-04-30T08:58:38;16.02;;;10.07;;
42186;SDS011;27858;51.414;0.018;2023-04-30T09:01:06;16.23;;;10.63;;
42186;SDS011;27858;51.414;0.018;2023-04-30T09:03:34;14.07;;;9.68;;
42186;SDS011;27858;51.414;0.018;2023-04-30T09:06:02;14.77;;;10.10;;
42186;SDS011;27858;51.414;0.018;2023-04-30T09:08:41;12.90;;;7.95;;
42186;SDS011;27858;51.414;0.018;2023-04-30T09:13:47;13.32;;;9.80;;
42186;SDS011;27858;51.414;0.018;2023-04-30T09:16:16;13.18;;;7.72;;
42186;SDS011;27858;51.414;0.018;2023-04-30T09:18:43;15.82;;;8.48;;
42186;SDS011;27858;51.414;0.018;2023-04-30T09:21:10;17.70;;;9.27;;
42186;SDS011;27858;51.414;0.018;2023-04-30T09:23:36;15.95;;;10.40;;
42186;SDS011;27858;51.414;0.018;2023-04-30T09:26:25;14.52;;;8.60;;
42186;SDS011;27858;51.414;0.018;2023-04-30T09:28:54;11.32;;;8.45;;
42186;SDS011;27858;51.414;0.018;2023-04-30T09:31:23;12.00;;;7.28;;
42186;SDS011;27858;51.414;0.018;2023-04-30T09:33:51;7.72;;;6.35;;
42186;SDS011;27858;51.414;0.018;2023-04-30T09:36:19;10.50;;;6.53;;
42186;SDS011;27858;51.414;0.018;2023-04-30T09:38:46;9.77;;;7.45;;
42186;SDS011;27858;51.414;0.018;2023-04-30T09:41:26;13.20;;;6.60;;
42186;SDS011;27858;51.414;0.018;2023-04-30T09:43:54;11.80;;;7.15;;
42186;SDS011;27858;51.414;0.018;2023-04-30T09:46:28;9.27;;;6.28;;
42186;SDS011;27858;51.414;0.018;2023-04-30T09:48:57;12.05;;;7.75;;
42186;SDS011;27858;51.414;0.018;2023-04-30T09:51:25;15.52;;;7.35;;
42186;SDS011;27858;51.414;0.018;2023-04-30T09:53:52;7.38;;;5.70;;
42186;SDS011;27858;51.414;0.018;2023-04-30T09:56:22;11.68;;;7.00;;
42186;SDS011;27858;51.414;0.018;2023-04-30T09:58:50;10.88;;;6.53;;
42186;SDS011;27858;51.414;0.018;2023-04-30T10:01:19;14.68;;;9.10;;
42186;SDS011;27858;51.414;0.018;2023-04-30T10:03:47;8.77;;;6.07;;
42186;SDS011;27858;51.414;0.018;2023-04-30T10:06:15;10.13;;;7.28;;
42186;SDS011;27858;51.414;0.018;2023-04-30T10:08:47;14.75;;;6.82;;
42186;SDS011;27858;51.414;0.018;2023-04-30T10:11:22;8.38;;;6.57;;
42186;SDS011;27858;51.414;0.018;2023-04-30T10:14:02;12.93;;;6.72;;
42186;SDS011;27858;51.414;0.018;2023-04-30T10:16:36;14.15;;;7.03;;
42186;SDS011;27858;51.414;0.018;2023-04-30T10:19:24;9.02;;;6.82;;
42186;SDS011;27858;51.414;0.018;2023-04-30T10:21:55;9.98;;;6.80;;
42186;SDS011;27858;51.414;0.018;2023-04-30T10:24:23;8.35;;;6.60;;
42186;SDS011;27858;51.414;0.018;2023-04-30T10:26:49;10.27;;;7.47;;
42186;SDS011;27858;51.414;0.018;2023-04-30T10:29:17;12.90;;;7.75;;
42186;SDS011;27858;51.414;0.018;2023-04-30T10:31:45;11.25;;;7.60;;
42186;SDS011;27858;51.414;0.018;2023-04-30T10:36:55;13.40;;;8.25;;
42186;SDS011;27858;51.414;0.018;2023-04-30T10:39:25;11.88;;;7.60;;
42186;SDS011;27858;51.414;0.018;2023-04-30T10:42:00;11.15;;;7.57;;
42186;SDS011;27858;51.414;0.018;2023-04-30T10:44:32;12.90;;;8.27;;
42186;SDS011;27858;51.414;0.018;2023-04-30T10:47:02;11.85;;;7.65;;
42186;SDS011;27858;51.414;0.018;2023-04-30T10:49:30;11.13;;;6.93;;
42186;SDS011;27858;51.414;0.018;2023-04-30T10:52:00;12.10;;;6.93;;
42186;SDS011;27858;51.414;0.018;2023-04-30T10:54:35;13.73;;;7.72;;
42186;SDS011;27858;51.414;0.018;2023-04-30T10:57:09;11.00;;;7.22;;
42186;SDS011;27858;51.414;0.018;2023-04-30T10:59:37;9.07;;;6.82;;
42186;SDS011;27858;51.414;0.018;2023-04-30T11:07:33;9.00;;;5.18;;
42186;SDS011;27858;51.414;0.018;2023-04-30T11:10:00;9.73;;;5.35;;
42186;SDS011;27858;51.414;0.018;2023-04-30T11:12:27;6.95;;;4.78;;
42186;SDS011;27858;51.414;0.018;2023-04-30T11:15:11;9.45;;;5.70;;
42186;SDS011;27858;51.414;0.018;2023-04-30T11:17:39;7.10;;;5.13;;
42186;SDS011;27858;51.414;0.018;2023-04-30T11:20:06;7.68;;;5.63;;
42186;SDS011;27858;51.414;0.018;2023-04-30T11:25:07;10.98;;;5.10;;
42186;SDS011;27858;51.414;0.018;2023-04-30T11:27:35;8.13;;;4.70;;
42186;SDS011;27858;51.414;0.018;2023-04-30T11:30:08;6.80;;;4.40;;
42186;SDS011;27858;51.414;0.018;2023-04-30T11:32:43;8.93;;;5.68;;
42186;SDS011;27858;51.414;0.018;2023-04-30T11:35:17;8.63;;;5.38;;
42186;SDS011;27858;51.414;0.018;2023-04-30T11:37:44;8.05;;;4.38;;
42186;SDS011;27858;51.414;0.018;2023-04-30T11:40:14;7.18;;;5.32;;
42186;SDS011;27858;51.414;0.018;2023-04-30T11:42:41;8.27;;;5.20;;
42186;SDS011;27858;51.414;0.018;2023-04-30T11:45:12;7.05;;;5.15;;
42186;SDS011;27858;51.414;0.018;2023-04-30T11:50:12;6.43;;;4.25;;
42186;SDS011;27858;51.414;0.018;2023-04-30T11:52:40;5.78;;;4.43;;
42186;SDS011;27858;51.414;0.018;2023-04-30T11:55:11;10.55;;;5.60;;
42186;SDS011;27858;51.414;0.018;2023-04-30T11:57:41;6.10;;;4.57;;
42186;SDS011;27858;51.414;0.018;2023-04-30T12:00:29;11.63;;;5.55;;
42186;SDS011;27858;51.414;0.018;2023-04-30T12:02:58;7.00;;;4.75;;
42186;SDS011;27858;51.414;0.018;2023-04-30T12:05:26;6.60;;;3.78;;
42186;SDS011;27858;51.414;0.018;2023-04-30T12:07:58;6.90;;;5.43;;
42186;SDS011;27858;51.414;0.018;2023-04-30T12:10:26;7.07;;;4.82;;
42186;SDS011;27858;51.414;0.018;2023-04-30T12:12:53;7.38;;;4.53;;
42186;SDS011;27858;51.414;0.018;2023-04-30T12:15:21;5.03;;;3.33;;
42186;SDS011;27858;51.414;0.018;2023-04-30T12:17:52;5.32;;;3.42;;
42186;SDS011;27858;51.414;0.018;2023-04-30T12:20:24;8.02;;;4.78;;
42186;SDS011;27858;51.414;0.018;2023-04-30T12:22:53;6.90;;;4.43;;
42186;SDS011;27858;51.414;0.018;2023-04-30T12:25:20;5.82;;;3.97;;
42186;SDS011;27858;51.414;0.018;2023-04-30T12:27:50;5.30;;;4.10;;
42186;SDS011;27858;51.414;0.018;2023-04-30T12:30:19;10.05;;;4.22;;
42186;SDS011;27858;51.414;0.018;2023-04-30T12:32:48;8.55;;;4.55;;
42186;SDS011;27858;51.414;0.018;2023-04-30T12:35:19;5.18;;;4.00;;
42186;SDS011;27858;51.414;0.018;2023-04-30T12:37:50;6.88;;;4.78;;
42186;SDS011;27858;51.414;0.018;2023-04-30T12:40:20;4.75;;;3.88;;
42186;SDS011;27858;51.414;0.018;2023-04-30T12:42:58;7.03;;;3.97;;
42186;SDS011;27858;51.414;0.018;2023-04-30T12:45:51;4.88;;;3.80;;
42186;SDS011;27858;51.414;0.018;2023-04-30T12:48:20;4.88;;;3.72;;
42186;SDS011;27858;51.414;0.018;2023-04-30T12:50:52;10.18;;;4.72;;
42186;SDS011;27858;51.414;0.018;2023-04-30T12:53:21;5.38;;;3.92;;
42186;SDS011;27858;51.414;0.018;2023-04-30T12:58:42;5.68;;;3.78;;
42186;SDS011;27858;51.414;0.018;2023-04-30T13:01:21;5.75;;;4.32;;
42186;SDS011;27858;51.414;0.018;2023-04-30T13:03:50;9.32;;;4.05;;
42186;SDS011;27858;51.414;0.018;2023-04-30T13:06:20;7.38;;;5.00;;
42186;SDS011;27858;51.414;0.018;2023-04-30T13:08:48;7.60;;;4.15;;
42186;SDS011;27858;51.414;0.018;2023-04-30T13:11:23;5.40;;;4.38;;
42186;SDS011;27858;51.414;0.018;2023-04-30T13:13:52;6.00;;;3.55;;
42186;SDS011;27858;51.414;0.018;2023-04-30T13:16:21;4.43;;;3.47;;
42186;SDS011;27858;51.414;0.018;2023-04-30T13:18:50;5.30;;;3.65;;
42186;SDS011;27858;51.414;0.018;2023-04-30T13:21:17;7.20;;;2.83;;
42186;SDS011;27858;51.414;0.018;2023-04-30T13:23:43;6.40;;;4.00;;
42186;SDS011;27858;51.414;0.018;2023-04-30T13:26:19;9.25;;;5.57;;
42186;SDS011;27858;51.414;0.018;2023-04-30T13:28:48;6.68;;;3.97;;
42186;SDS011;27858;51.414;0.018;2023-04-30T13:31:14;7.78;;;4.43;;
42186;SDS011;27858;51.414;0.018;2023-04-30T13:33:41;5.50;;;3.40;;
42186;SDS011;27858;51.414;0.018;2023-04-30T13:36:08;4.60;;;3.53;;
42186;SDS011;27858;51.414;0.018;2023-04-30T13:38:35;3.45;;;2.90;;
42186;SDS011;27858;51.414;0.018;2023-04-30T13:41:04;10.18;;;4.90;;
42186;SDS011;27858;51.414;0.018;2023-04-30T13:43:31;8.57;;;3.80;;
42186;SDS011;27858;51.414;0.018;2023-04-30T13:45:58;6.30;;;4.18;;
42186;SDS011;27858;51.414;0.018;2023-04-30T13:48:25;6.90;;;4.13;;
42186;SDS011;27858;51.414;0.018;2023-04-30T13:50:52;5.22;;;3.60;;
42186;SDS011;27858;51.414;0.018;2023-04-30T13:53:19;5.88;;;3.20;;
42186;SDS011;27858;51.414;0.018;2023-04-30T13:55:46;5.55;;;3.45;;
42186;SDS011;27858;51.414;0.018;2023-04-30T13:58:13;4.40;;;3.05;;
42186;SDS011;27858;51.414;0.018;2023-04-30T14:00:41;7.30;;;3.80;;
42186;SDS011;27858;51.414;0.018;2023-04-30T14:03:08;7.75;;;4.15;;
42186;SDS011;27858;51.414;0.018;2023-04-30T14:05:35;5.22;;;2.90;;
42186;SDS011;27858;51.414;0.018;2023-04-30T14:08:02;6.57;;;3.72;;
42186;SDS011;27858;51.414;0.018;2023-04-30T14:10:30;8.30;;;4.30;;
42186;SDS011;27858;51.414;0.018;2023-04-30T14:12:58;4.75;;;3.58;;
42186;SDS011;27858;51.414;0.018;2023-04-30T14:15:25;5.95;;;3.30;;
42186;SDS011;27858;51.414;0.018;2023-04-30T14:17:55;8.77;;;4.22;;
42186;SDS011;27858;51.414;0.018;2023-04-30T14:20:22;7.10;;;4.78;;
42186;SDS011;27858;51.414;0.018;2023-04-30T14:22:50;6.28;;;4.40;;
42186;SDS011;27858;51.414;0.018;2023-04-30T14:25:16;6.20;;;4.00;;
42186;SDS011;27858;51.414;0.018;2023-04-30T14:27:43;5.07;;;3.40;;
42186;SDS011;27858;51.414;0.018;2023-04-30T14:30:12;6.85;;;4.03;;
42186;SDS011;27858;51.414;0.018;2023-04-30T14:32:39;8.65;;;4.25;;
42186;SDS011;27858;51.414;0.018;2023-04-30T14:35:06;4.70;;;3.60;;
42186;SDS011;27858;51.414;0.018;2023-04-30T14:37:33;6.20;;;3.83;;
42186;SDS011;27858;51.414;0.018;2023-04-30T14:40:00;5.07;;;3.80;;
42186;SDS011;27858;51.414;0.018;2023-04-30T14:42:28;5.35;;;2.97;;
42186;SDS011;27858;51.414;0.018;2023-04-30T14:44:54;3.35;;;2.90;;
42186;SDS011;27858;51.414;0.018;2023-04-30T14:47:21;7.10;;;3.60;;
42186;SDS011;27858;51.414;0.018;2023-04-30T14:49:52;11.60;;;4.80;;
42186;SDS011;27858;51.414;0.018;2023-04-30T14:52:19;4.63;;;3.45;;
42186;SDS011;27858;51.414;0.018;2023-04-30T14:54:46;3.55;;;2.88;;
42186;SDS011;27858;51.414;0.018;2023-04-30T14:57:13;3.05;;;2.42;;
42186;SDS011;27858;51.414;0.018;2023-04-30T14:59:40;3.70;;;2.70;;
42186;SDS011;27858;51.414;0.018;2023-04-30T15:02:07;4.40;;;3.63;;
42186;SDS011;27858;51.414;0.018;2023-04-30T15:04:34;6.90;;;3.55;;
42186;SDS011;27858;51.414;0.018;2023-04-30T15:07:01;5.40;;;4.00;;
42186;SDS011;27858;51.414;0.018;2023-04-30T15:09:28;4.43;;;3.55;;
42186;SDS011;27858;51.414;0.018;2023-04-30T15:11:54;9.70;;;3.95;;
42186;SDS011;27858;51.414;0.018;2023-04-30T15:14:21;5.43;;;3.80;;